CheckWX is a tool to help pilots better visualize weather data.  It is not intended as a substitute for an official pre-flight weather briefing.

06:14:09 UTC

SBAN TAF
Base Aérea Airport
Anápolis, Brazil
TAF SBAN 212200Z 2200/2212 03005KT 9999 FEW030 FEW045TCU TX21/2200Z TN17/2208Z BECMG 2201/2203 16005KT CAVOK BECMG 2206/2208 12005KT BECMG 2209/2211 06005KT RMK PEJ

Apr-22@
00:00 UTC

Apr-22 @ 00:00 UTC

Apr-22@
01:00 UTC

Apr-22 @ 01:00 UTC

TAF SBAN 212200Z 2200/2212 03005KT 9999 FEW030 FEW045TCU TX21/2200Z TN17/2208Z

Expired

Wind
  • 030° at 5 KTS
Cloud Levels
  • Few at 3,000' AGL
  • Few at 4,500' AGL

Apr-22@
01:00 UTC

Apr-22 @ 01:00 UTC

Apr-22@
06:00 UTC

Apr-22 @ 06:00 UTC

BECMG 2201/2203 16005KT CAVOK

Expired

Wind
  • 160° at 5 KTS
Conditions
No significant weather
Cloud Levels
  • No significant clouds

Apr-22@
06:00 UTC

Apr-22 @ 06:00 UTC

Apr-22@
09:00 UTC

Apr-22 @ 09:00 UTC

BECMG 2206/2208 12005KT

Becoming

Becoming Conditions expected by Mon, Apr 22, 2019 @ 08:00 UTC

Wind
  • 120° at 5 KTS
Conditions
No significant weather
Cloud Levels
  • No significant clouds

Apr-22@
09:00 UTC

Apr-22 @ 09:00 UTC

Apr-22@
12:00 UTC

Apr-22 @ 12:00 UTC

BECMG 2209/2211 06005KT RMK PEJ

Becoming

Becoming Conditions expected by Mon, Apr 22, 2019 @ 11:00 UTC

Wind
  • 060° at 5 KTS
Conditions
No significant weather
Cloud Levels
  • No significant clouds